sensor_id;sensor_type;location;lat;lon;timestamp;P1;durP1;ratioP1;P2;durP2;ratioP2
78796;SDS011;68145;52.514;13.460;2023-07-16T00:01:42;6.10;;;4.20;;
78796;SDS011;68145;52.514;13.460;2023-07-16T00:04:08;7.82;;;4.75;;
78796;SDS011;68145;52.514;13.460;2023-07-16T00:06:34;5.15;;;3.58;;
78796;SDS011;68145;52.514;13.460;2023-07-16T00:09:00;6.43;;;4.53;;
78796;SDS011;68145;52.514;13.460;2023-07-16T00:11:26;8.65;;;4.90;;
78796;SDS011;68145;52.514;13.460;2023-07-16T00:13:53;9.10;;;5.32;;
78796;SDS011;68145;52.514;13.460;2023-07-16T00:16:19;4.55;;;3.20;;
78796;SDS011;68145;52.514;13.460;2023-07-16T00:18:45;6.38;;;3.58;;
78796;SDS011;68145;52.514;13.460;2023-07-16T00:21:11;4.78;;;3.50;;
78796;SDS011;68145;52.514;13.460;2023-07-16T00:23:37;4.93;;;3.03;;
78796;SDS011;68145;52.514;13.460;2023-07-16T00:26:03;5.45;;;3.10;;
78796;SDS011;68145;52.514;13.460;2023-07-16T00:28:29;9.68;;;6.78;;
78796;SDS011;68145;52.514;13.460;2023-07-16T00:30:55;7.22;;;4.93;;
78796;SDS011;68145;52.514;13.460;2023-07-16T00:33:21;4.63;;;3.30;;
78796;SDS011;68145;52.514;13.460;2023-07-16T00:35:50;4.68;;;3.42;;
78796;SDS011;68145;52.514;13.460;2023-07-16T00:38:17;5.68;;;3.30;;
78796;SDS011;68145;52.514;13.460;2023-07-16T00:40:43;4.40;;;3.33;;
78796;SDS011;68145;52.514;13.460;2023-07-16T00:43:09;6.07;;;3.67;;
78796;SDS011;68145;52.514;13.460;2023-07-16T00:45:36;7.10;;;4.10;;
78796;SDS011;68145;52.514;13.460;2023-07-16T00:48:02;10.75;;;6.40;;
78796;SDS011;68145;52.514;13.460;2023-07-16T00:50:30;10.18;;;7.22;;
78796;SDS011;68145;52.514;13.460;2023-07-16T00:52:59;7.97;;;5.57;;
78796;SDS011;68145;52.514;13.460;2023-07-16T00:55:25;8.55;;;5.85;;
78796;SDS011;68145;52.514;13.460;2023-07-16T00:57:51;6.97;;;4.53;;
78796;SDS011;68145;52.514;13.460;2023-07-16T01:00:21;7.32;;;5.45;;
78796;SDS011;68145;52.514;13.460;2023-07-16T01:02:47;13.40;;;6.72;;
78796;SDS011;68145;52.514;13.460;2023-07-16T01:05:13;9.65;;;5.53;;
78796;SDS011;68145;52.514;13.460;2023-07-16T01:07:39;15.02;;;9.43;;
78796;SDS011;68145;52.514;13.460;2023-07-16T01:10:08;8.82;;;5.72;;
78796;SDS011;68145;52.514;13.460;2023-07-16T01:12:34;7.45;;;4.75;;
78796;SDS011;68145;52.514;13.460;2023-07-16T01:15:02;7.82;;;5.75;;
78796;SDS011;68145;52.514;13.460;2023-07-16T01:17:28;16.40;;;10.13;;
78796;SDS011;68145;52.514;13.460;2023-07-16T01:19:54;8.90;;;6.07;;
78796;SDS011;68145;52.514;13.460;2023-07-16T01:25:09;12.27;;;7.50;;
78796;SDS011;68145;52.514;13.460;2023-07-16T01:30:08;13.23;;;10.18;;
78796;SDS011;68145;52.514;13.460;2023-07-16T01:32:34;14.15;;;10.05;;
78796;SDS011;68145;52.514;13.460;2023-07-16T01:35:01;14.13;;;9.88;;
78796;SDS011;68145;52.514;13.460;2023-07-16T01:37:27;10.95;;;8.15;;
78796;SDS011;68145;52.514;13.460;2023-07-16T01:39:54;12.27;;;8.95;;
78796;SDS011;68145;52.514;13.460;2023-07-16T01:42:20;13.52;;;8.88;;
78796;SDS011;68145;52.514;13.460;2023-07-16T01:44:46;11.55;;;8.32;;
78796;SDS011;68145;52.514;13.460;2023-07-16T01:47:20;11.15;;;7.78;;
78796;SDS011;68145;52.514;13.460;2023-07-16T01:49:48;8.23;;;6.40;;
78796;SDS011;68145;52.514;13.460;2023-07-16T01:52:14;5.70;;;4.40;;
78796;SDS011;68145;52.514;13.460;2023-07-16T01:54:40;11.20;;;8.20;;
78796;SDS011;68145;52.514;13.460;2023-07-16T01:57:06;12.77;;;8.77;;
78796;SDS011;68145;52.514;13.460;2023-07-16T01:59:32;9.35;;;6.75;;
78796;SDS011;68145;52.514;13.460;2023-07-16T02:01:58;6.95;;;4.55;;
78796;SDS011;68145;52.514;13.460;2023-07-16T02:04:24;8.40;;;5.63;;
78796;SDS011;68145;52.514;13.460;2023-07-16T02:06:50;5.75;;;4.03;;
78796;SDS011;68145;52.514;13.460;2023-07-16T02:09:16;7.10;;;5.25;;
78796;SDS011;68145;52.514;13.460;2023-07-16T02:11:42;11.23;;;7.63;;
78796;SDS011;68145;52.514;13.460;2023-07-16T02:14:08;9.13;;;5.68;;
78796;SDS011;68145;52.514;13.460;2023-07-16T02:16:35;5.65;;;4.07;;
78796;SDS011;68145;52.514;13.460;2023-07-16T02:19:01;5.40;;;3.20;;
78796;SDS011;68145;52.514;13.460;2023-07-16T02:21:27;6.20;;;3.63;;
78796;SDS011;68145;52.514;13.460;2023-07-16T02:23:53;3.85;;;2.80;;
78796;SDS011;68145;52.514;13.460;2023-07-16T02:26:19;5.63;;;3.28;;
78796;SDS011;68145;52.514;13.460;2023-07-16T02:28:45;6.88;;;4.65;;
78796;SDS011;68145;52.514;13.460;2023-07-16T02:31:11;6.85;;;4.55;;
78796;SDS011;68145;52.514;13.460;2023-07-16T02:33:37;4.82;;;3.15;;
78796;SDS011;68145;52.514;13.460;2023-07-16T02:36:03;5.85;;;3.40;;
78796;SDS011;68145;52.514;13.460;2023-07-16T02:38:30;6.70;;;4.30;;
78796;SDS011;68145;52.514;13.460;2023-07-16T02:40:56;5.55;;;3.97;;
78796;SDS011;68145;52.514;13.460;2023-07-16T02:43:22;5.05;;;3.22;;
78796;SDS011;68145;52.514;13.460;2023-07-16T02:45:48;6.05;;;3.05;;
78796;SDS011;68145;52.514;13.460;2023-07-16T02:48:14;5.07;;;3.70;;
78796;SDS011;68145;52.514;13.460;2023-07-16T02:50:41;4.30;;;2.80;;
78796;SDS011;68145;52.514;13.460;2023-07-16T02:53:07;5.85;;;3.70;;
78796;SDS011;68145;52.514;13.460;2023-07-16T02:55:36;7.72;;;4.45;;
78796;SDS011;68145;52.514;13.460;2023-07-16T02:58:02;6.00;;;4.18;;
78796;SDS011;68145;52.514;13.460;2023-07-16T03:00:32;11.55;;;8.05;;
78796;SDS011;68145;52.514;13.460;2023-07-16T03:02:58;11.07;;;6.78;;
78796;SDS011;68145;52.514;13.460;2023-07-16T03:05:25;7.60;;;4.90;;
78796;SDS011;68145;52.514;13.460;2023-07-16T03:07:51;8.23;;;4.57;;
78796;SDS011;68145;52.514;13.460;2023-07-16T03:10:17;8.50;;;4.85;;
78796;SDS011;68145;52.514;13.460;2023-07-16T03:12:43;5.20;;;4.03;;
78796;SDS011;68145;52.514;13.460;2023-07-16T03:15:09;8.25;;;5.05;;
78796;SDS011;68145;52.514;13.460;2023-07-16T03:17:36;9.52;;;5.93;;
78796;SDS011;68145;52.514;13.460;2023-07-16T03:20:02;8.38;;;5.53;;
78796;SDS011;68145;52.514;13.460;2023-07-16T03:22:31;6.90;;;4.97;;
78796;SDS011;68145;52.514;13.460;2023-07-16T03:24:57;8.27;;;4.80;;
78796;SDS011;68145;52.514;13.460;2023-07-16T03:27:23;8.38;;;5.60;;
78796;SDS011;68145;52.514;13.460;2023-07-16T03:29:49;5.72;;;3.90;;
78796;SDS011;68145;52.514;13.460;2023-07-16T03:32:15;6.30;;;4.13;;
78796;SDS011;68145;52.514;13.460;2023-07-16T03:34:41;6.53;;;3.85;;
78796;SDS011;68145;52.514;13.460;2023-07-16T03:37:07;5.95;;;3.70;;
78796;SDS011;68145;52.514;13.460;2023-07-16T03:39:33;5.70;;;3.50;;
78796;SDS011;68145;52.514;13.460;2023-07-16T03:41:59;5.70;;;3.60;;
78796;SDS011;68145;52.514;13.460;2023-07-16T03:44:26;4.13;;;2.92;;
78796;SDS011;68145;52.514;13.460;2023-07-16T03:46:53;4.70;;;3.00;;
78796;SDS011;68145;52.514;13.460;2023-07-16T03:49:19;4.80;;;3.33;;
78796;SDS011;68145;52.514;13.460;2023-07-16T03:51:45;5.60;;;3.05;;
78796;SDS011;68145;52.514;13.460;2023-07-16T03:54:11;4.55;;;3.10;;
78796;SDS011;68145;52.514;13.460;2023-07-16T03:56:37;4.40;;;2.92;;
78796;SDS011;68145;52.514;13.460;2023-07-16T03:59:03;4.25;;;2.85;;
78796;SDS011;68145;52.514;13.460;2023-07-16T04:01:29;4.00;;;2.70;;
78796;SDS011;68145;52.514;13.460;2023-07-16T04:03:55;5.32;;;2.80;;
78796;SDS011;68145;52.514;13.460;2023-07-16T04:06:21;3.25;;;2.40;;
78796;SDS011;68145;52.514;13.460;2023-07-16T04:08:47;5.80;;;2.97;;
78796;SDS011;68145;52.514;13.460;2023-07-16T04:11:13;4.47;;;2.72;;
78796;SDS011;68145;52.514;13.460;2023-07-16T04:13:39;4.68;;;2.80;;
78796;SDS011;68145;52.514;13.460;2023-07-16T04:16:05;4.72;;;3.25;;
78796;SDS011;68145;52.514;13.460;2023-07-16T04:18:31;3.75;;;2.53;;
78796;SDS011;68145;52.514;13.460;2023-07-16T04:20:58;5.50;;;2.83;;
78796;SDS011;68145;52.514;13.460;2023-07-16T04:23:24;3.38;;;2.42;;
78796;SDS011;68145;52.514;13.460;2023-07-16T04:25:51;4.40;;;2.45;;
78796;SDS011;68145;52.514;13.460;2023-07-16T04:30:44;4.82;;;2.90;;
78796;SDS011;68145;52.514;13.460;2023-07-16T04:33:10;3.97;;;2.70;;
78796;SDS011;68145;52.514;13.460;2023-07-16T04:35:36;4.03;;;2.70;;
78796;SDS011;68145;52.514;13.460;2023-07-16T04:38:02;4.00;;;2.55;;
78796;SDS011;68145;52.514;13.460;2023-07-16T04:40:28;3.80;;;2.88;;
78796;SDS011;68145;52.514;13.460;2023-07-16T04:42:55;4.97;;;3.00;;
78796;SDS011;68145;52.514;13.460;2023-07-16T04:45:21;5.20;;;2.85;;
78796;SDS011;68145;52.514;13.460;2023-07-16T04:47:47;6.10;;;2.90;;
78796;SDS011;68145;52.514;13.460;2023-07-16T04:50:13;4.68;;;2.83;;
78796;SDS011;68145;52.514;13.460;2023-07-16T04:52:39;4.40;;;2.65;;
78796;SDS011;68145;52.514;13.460;2023-07-16T04:55:05;6.55;;;3.40;;
78796;SDS011;68145;52.514;13.460;2023-07-16T04:57:32;5.60;;;3.22;;
78796;SDS011;68145;52.514;13.460;2023-07-16T04:59:59;4.30;;;2.78;;
78796;SDS011;68145;52.514;13.460;2023-07-16T05:02:25;4.63;;;2.55;;
78796;SDS011;68145;52.514;13.460;2023-07-16T05:04:51;4.88;;;3.15;;
78796;SDS011;68145;52.514;13.460;2023-07-16T05:07:17;4.25;;;2.97;;
78796;SDS011;68145;52.514;13.460;2023-07-16T05:09:43;4.18;;;2.90;;
78796;SDS011;68145;52.514;13.460;2023-07-16T05:12:10;5.47;;;3.15;;
78796;SDS011;68145;52.514;13.460;2023-07-16T05:14:43;4.00;;;3.20;;
78796;SDS011;68145;52.514;13.460;2023-07-16T05:17:11;3.38;;;2.60;;
78796;SDS011;68145;52.514;13.460;2023-07-16T05:19:37;4.15;;;2.92;;
78796;SDS011;68145;52.514;13.460;2023-07-16T05:22:03;4.90;;;3.28;;
78796;SDS011;68145;52.514;13.460;2023-07-16T05:24:30;7.47;;;3.70;;
78796;SDS011;68145;52.514;13.460;2023-07-16T05:29:22;4.97;;;3.30;;
78796;SDS011;68145;52.514;13.460;2023-07-16T05:31:48;4.30;;;3.20;;
78796;SDS011;68145;52.514;13.460;2023-07-16T05:34:15;4.50;;;3.13;;
78796;SDS011;68145;52.514;13.460;2023-07-16T05:36:41;4.38;;;3.25;;
78796;SDS011;68145;52.514;13.460;2023-07-16T05:39:09;5.90;;;3.40;;
78796;SDS011;68145;52.514;13.460;2023-07-16T05:41:37;4.15;;;3.00;;
78796;SDS011;68145;52.514;13.460;2023-07-16T05:44:03;4.68;;;3.22;;
78796;SDS011;68145;52.514;13.460;2023-07-16T05:46:29;5.35;;;3.33;;
78796;SDS011;68145;52.514;13.460;2023-07-16T05:48:55;7.72;;;3.08;;
78796;SDS011;68145;52.514;13.460;2023-07-16T05:51:21;4.63;;;3.13;;
78796;SDS011;68145;52.514;13.460;2023-07-16T05:53:47;6.38;;;3.97;;
78796;SDS011;68145;52.514;13.460;2023-07-16T05:56:13;3.90;;;2.92;;
78796;SDS011;68145;52.514;13.460;2023-07-16T05:58:42;4.88;;;3.00;;
78796;SDS011;68145;52.514;13.460;2023-07-16T06:01:11;6.18;;;3.13;;
78796;SDS011;68145;52.514;13.460;2023-07-16T06:03:40;8.88;;;3.20;;
78796;SDS011;68145;52.514;13.460;2023-07-16T06:06:08;5.25;;;3.20;;
78796;SDS011;68145;52.514;13.460;2023-07-16T06:08:34;3.65;;;2.83;;
78796;SDS011;68145;52.514;13.460;2023-07-16T06:11:00;4.15;;;2.90;;
78796;SDS011;68145;52.514;13.460;2023-07-16T06:13:26;5.70;;;3.00;;
78796;SDS011;68145;52.514;13.460;2023-07-16T06:15:52;3.97;;;3.03;;
78796;SDS011;68145;52.514;13.460;2023-07-16T06:18:18;4.82;;;3.17;;
78796;SDS011;68145;52.514;13.460;2023-07-16T06:20:45;6.50;;;3.50;;
78796;SDS011;68145;52.514;13.460;2023-07-16T06:23:11;4.45;;;3.25;;
78796;SDS011;68145;52.514;13.460;2023-07-16T06:25:37;4.38;;;3.20;;
78796;SDS011;68145;52.514;13.460;2023-07-16T06:28:05;5.43;;;3.03;;
78796;SDS011;68145;52.514;13.460;2023-07-16T06:30:31;4.50;;;3.60;;
78796;SDS011;68145;52.514;13.460;2023-07-16T06:32:59;6.95;;;3.28;;
78796;SDS011;68145;52.514;13.460;2023-07-16T06:35:25;5.50;;;3.17;;
78796;SDS011;68145;52.514;13.460;2023-07-16T06:37:51;4.15;;;3.10;;
78796;SDS011;68145;52.514;13.460;2023-07-16T06:40:17;5.00;;;3.15;;
78796;SDS011;68145;52.514;13.460;2023-07-16T06:42:43;3.92;;;3.00;;
78796;SDS011;68145;52.514;13.460;2023-07-16T06:45:09;4.50;;;2.80;;
78796;SDS011;68145;52.514;13.460;2023-07-16T06:47:36;4.20;;;3.10;;
78796;SDS011;68145;52.514;13.460;2023-07-16T06:50:02;4.93;;;2.75;;
78796;SDS011;68145;52.514;13.460;2023-07-16T06:52:28;4.75;;;3.05;;
78796;SDS011;68145;52.514;13.460;2023-07-16T06:57:24;4.13;;;3.05;;
78796;SDS011;68145;52.514;13.460;2023-07-16T06:59:50;4.03;;;3.00;;
78796;SDS011;68145;52.514;13.460;2023-07-16T07:02:17;3.78;;;3.03;;
78796;SDS011;68145;52.514;13.460;2023-07-16T07:04:43;3.63;;;2.97;;
78796;SDS011;68145;52.514;13.460;2023-07-16T07:07:09;4.82;;;3.20;;
78796;SDS011;68145;52.514;13.460;2023-07-16T07:09:35;4.88;;;3.00;;
78796;SDS011;68145;52.514;13.460;2023-07-16T07:12:01;5.30;;;3.00;;
78796;SDS011;68145;52.514;13.460;2023-07-16T07:14:27;6.45;;;3.00;;
78796;SDS011;68145;52.514;13.460;2023-07-16T07:16:53;4.22;;;3.17;;
78796;SDS011;68145;52.514;13.460;2023-07-16T07:19:19;5.43;;;2.58;;
78796;SDS011;68145;52.514;13.460;2023-07-16T07:21:45;5.05;;;2.80;;
78796;SDS011;68145;52.514;13.460;2023-07-16T07:24:12;3.17;;;2.78;;
78796;SDS011;68145;52.514;13.460;2023-07-16T07:26:38;4.43;;;3.35;;
78796;SDS011;68145;52.514;13.460;2023-07-16T07:29:04;4.28;;;3.08;;
78796;SDS011;68145;52.514;13.460;2023-07-16T07:31:30;4.82;;;2.83;;
78796;SDS011;68145;52.514;13.460;2023-07-16T07:33:56;3.53;;;2.67;;
78796;SDS011;68145;52.514;13.460;2023-07-16T07:38:49;4.55;;;2.85;;
78796;SDS011;68145;52.514;13.460;2023-07-16T07:41:15;4.25;;;2.88;;
78796;SDS011;68145;52.514;13.460;2023-07-16T07:43:42;4.88;;;2.83;;
78796;SDS011;68145;52.514;13.460;2023-07-16T07:46:09;5.20;;;3.05;;
78796;SDS011;68145;52.514;13.460;2023-07-16T07:48:35;5.28;;;3.70;;
78796;SDS011;68145;52.514;13.460;2023-07-16T07:51:01;5.15;;;2.70;;
78796;SDS011;68145;52.514;13.460;2023-07-16T07:53:27;3.65;;;2.80;;
78796;SDS011;68145;52.514;13.460;2023-07-16T07:55:54;4.97;;;3.25;;
78796;SDS011;68145;52.514;13.460;2023-07-16T07:58:20;5.30;;;3.05;;
78796;SDS011;68145;52.514;13.460;2023-07-16T08:00:47;5.47;;;2.58;;
78796;SDS011;68145;52.514;13.460;2023-07-16T08:03:13;4.20;;;3.00;;
78796;SDS011;68145;52.514;13.460;2023-07-16T08:05:39;4.63;;;2.72;;
78796;SDS011;68145;52.514;13.460;2023-07-16T08:08:05;3.90;;;2.85;;
78796;SDS011;68145;52.514;13.460;2023-07-16T08:10:31;3.55;;;2.67;;
78796;SDS011;68145;52.514;13.460;2023-07-16T08:12:57;3.95;;;3.05;;
78796;SDS011;68145;52.514;13.460;2023-07-16T08:15:23;5.82;;;2.60;;
78796;SDS011;68145;52.514;13.460;2023-07-16T08:17:50;4.40;;;2.58;;
78796;SDS011;68145;52.514;13.460;2023-07-16T08:20:16;3.88;;;2.22;;
78796;SDS011;68145;52.514;13.460;2023-07-16T08:22:42;5.07;;;2.70;;
78796;SDS011;68145;52.514;13.460;2023-07-16T08:25:08;3.03;;;2.38;;
78796;SDS011;68145;52.514;13.460;2023-07-16T08:27:34;3.75;;;2.30;;
78796;SDS011;68145;52.514;13.460;2023-07-16T08:30:00;4.53;;;2.17;;
78796;SDS011;68145;52.514;13.460;2023-07-16T08:32:26;2.80;;;2.20;;
78796;SDS011;68145;52.514;13.460;2023-07-16T08:34:52;2.63;;;2.15;;
78796;SDS011;68145;52.514;13.460;2023-07-16T08:37:18;4.10;;;2.10;;
78796;SDS011;68145;52.514;13.460;2023-07-16T08:39:44;4.38;;;2.00;;
78796;SDS011;68145;52.514;13.460;2023-07-16T08:42:10;3.05;;;2.20;;
78796;SDS011;68145;52.514;13.460;2023-07-16T08:44:39;3.20;;;2.10;;
78796;SDS011;68145;52.514;13.460;2023-07-16T08:47:06;8.93;;;2.60;;
78796;SDS011;68145;52.514;13.460;2023-07-16T08:49:33;3.15;;;2.05;;
78796;SDS011;68145;52.514;13.460;2023-07-16T08:52:06;3.88;;;2.65;;
78796;SDS011;68145;52.514;13.460;2023-07-16T08:54:32;3.28;;;2.08;;
78796;SDS011;68145;52.514;13.460;2023-07-16T08:56:58;4.40;;;2.33;;
78796;SDS011;68145;52.514;13.460;2023-07-16T08:59:26;5.57;;;2.80;;
78796;SDS011;68145;52.514;13.460;2023-07-16T09:01:52;5.78;;;2.95;;
78796;SDS011;68145;52.514;13.460;2023-07-16T09:04:19;4.10;;;2.30;;
78796;SDS011;68145;52.514;13.460;2023-07-16T09:06:45;4.80;;;2.58;;
78796;SDS011;68145;52.514;13.460;2023-07-16T09:09:29;5.03;;;2.00;;
78796;SDS011;68145;52.514;13.460;2023-07-16T09:11:55;5.75;;;2.70;;
78796;SDS011;68145;52.514;13.460;2023-07-16T09:14:21;4.45;;;2.50;;
78796;SDS011;68145;52.514;13.460;2023-07-16T09:16:48;5.47;;;2.83;;
78796;SDS011;68145;52.514;13.460;2023-07-16T09:19:14;4.32;;;2.10;;
78796;SDS011;68145;52.514;13.460;2023-07-16T09:21:45;7.20;;;3.97;;
78796;SDS011;68145;52.514;13.460;2023-07-16T09:24:11;3.35;;;2.20;;
78796;SDS011;68145;52.514;13.460;2023-07-16T09:26:37;2.97;;;2.00;;
78796;SDS011;68145;52.514;13.460;2023-07-16T09:29:07;6.15;;;2.38;;
78796;SDS011;68145;52.514;13.460;2023-07-16T09:31:33;3.53;;;2.38;;
78796;SDS011;68145;52.514;13.460;2023-07-16T09:33:59;4.20;;;2.38;;
78796;SDS011;68145;52.514;13.460;2023-07-16T09:36:25;4.22;;;2.67;;
78796;SDS011;68145;52.514;13.460;2023-07-16T09:38:54;3.78;;;2.40;;
78796;SDS011;68145;52.514;13.460;2023-07-16T09:41:20;4.10;;;2.10;;
78796;SDS011;68145;52.514;13.460;2023-07-16T09:43:47;3.53;;;2.15;;
78796;SDS011;68145;52.514;13.460;2023-07-16T09:46:13;4.20;;;2.45;;
78796;SDS011;68145;52.514;13.460;2023-07-16T09:48:39;3.33;;;2.15;;
78796;SDS011;68145;52.514;13.460;2023-07-16T09:51:06;3.05;;;2.03;;
78796;SDS011;68145;52.514;13.460;2023-07-16T09:53:33;3.35;;;2.20;;
78796;SDS011;68145;52.514;13.460;2023-07-16T09:58:26;4.63;;;2.65;;
78796;SDS011;68145;52.514;13.460;2023-07-16T10:00:52;4.03;;;2.30;;
78796;SDS011;68145;52.514;13.460;2023-07-16T10:03:18;3.50;;;2.33;;
78796;SDS011;68145;52.514;13.460;2023-07-16T10:05:44;2.88;;;2.00;;
78796;SDS011;68145;52.514;13.460;2023-07-16T10:08:17;5.68;;;3.38;;
78796;SDS011;68145;52.514;13.460;2023-07-16T10:10:45;3.55;;;2.45;;
78796;SDS011;68145;52.514;13.460;2023-07-16T10:13:14;6.38;;;3.15;;
78796;SDS011;68145;52.514;13.460;2023-07-16T10:18:36;3.22;;;2.00;;
78796;SDS011;68145;52.514;13.460;2023-07-16T10:21:03;4.75;;;2.50;;
78796;SDS011;68145;52.514;13.460;2023-07-16T10:23:36;4.63;;;2.30;;
78796;SDS011;68145;52.514;13.460;2023-07-16T10:26:04;3.85;;;2.22;;
78796;SDS011;68145;52.514;13.460;2023-07-16T10:28:37;8.10;;;2.63;;
78796;SDS011;68145;52.514;13.460;2023-07-16T10:31:03;4.40;;;2.63;;
78796;SDS011;68145;52.514;13.460;2023-07-16T10:33:30;4.63;;;2.03;;
78796;SDS011;68145;52.514;13.460;2023-07-16T10:35:57;6.30;;;3.25;;
78796;SDS011;68145;52.514;13.460;2023-07-16T10:38:26;3.28;;;2.17;;
78796;SDS011;68145;52.514;13.460;2023-07-16T10:40:52;4.53;;;2.92;;
78796;SDS011;68145;52.514;13.460;2023-07-16T10:43:18;4.15;;;2.30;;
78796;SDS011;68145;52.514;13.460;2023-07-16T10:45:46;4.03;;;2.40;;
78796;SDS011;68145;52.514;13.460;2023-07-16T10:50:40;5.05;;;2.47;;
78796;SDS011;68145;52.514;13.460;2023-07-16T10:53:06;5.18;;;2.30;;
78796;SDS011;68145;52.514;13.460;2023-07-16T10:55:32;4.63;;;2.40;;
78796;SDS011;68145;52.514;13.460;2023-07-16T10:58:03;4.88;;;2.50;;
78796;SDS011;68145;52.514;13.460;2023-07-16T11:00:31;6.13;;;2.58;;
78796;SDS011;68145;52.514;13.460;2023-07-16T11:02:57;5.13;;;2.40;;
78796;SDS011;68145;52.514;13.460;2023-07-16T11:05:23;3.85;;;2.30;;
78796;SDS011;68145;52.514;13.460;2023-07-16T11:07:49;4.10;;;2.72;;
78796;SDS011;68145;52.514;13.460;2023-07-16T11:10:16;3.40;;;2.03;;
78796;SDS011;68145;52.514;13.460;2023-07-16T11:12:42;3.95;;;2.30;;
78796;SDS011;68145;52.514;13.460;2023-07-16T11:15:09;5.95;;;2.55;;
78796;SDS011;68145;52.514;13.460;2023-07-16T11:17:37;4.85;;;2.85;;
78796;SDS011;68145;52.514;13.460;2023-07-16T11:20:03;4.55;;;2.50;;
78796;SDS011;68145;52.514;13.460;2023-07-16T11:22:32;3.88;;;2.30;;
78796;SDS011;68145;52.514;13.460;2023-07-16T11:24:58;3.92;;;2.60;;
78796;SDS011;68145;52.514;13.460;2023-07-16T11:27:26;5.07;;;3.42;;
78796;SDS011;68145;52.514;13.460;2023-07-16T11:29:55;4.88;;;2.53;;
78796;SDS011;68145;52.514;13.460;2023-07-16T11:34:57;4.13;;;2.40;;
78796;SDS011;68145;52.514;13.460;2023-07-16T11:39:50;6.43;;;2.80;;
78796;SDS011;68145;52.514;13.460;2023-07-16T11:42:23;3.95;;;2.55;;
78796;SDS011;68145;52.514;13.460;2023-07-16T11:44:49;5.32;;;3.22;;
78796;SDS011;68145;52.514;13.460;2023-07-16T11:47:15;4.72;;;2.63;;
78796;SDS011;68145;52.514;13.460;2023-07-16T11:49:41;5.32;;;2.63;;
78796;SDS011;68145;52.514;13.460;2023-07-16T11:52:08;4.28;;;2.50;;
78796;SDS011;68145;52.514;13.460;2023-07-16T11:54:34;4.40;;;2.72;;
78796;SDS011;68145;52.514;13.460;2023-07-16T11:57:00;3.85;;;2.45;;
78796;SDS011;68145;52.514;13.460;2023-07-16T11:59:26;5.30;;;2.55;;
78796;SDS011;68145;52.514;13.460;2023-07-16T12:01:52;3.00;;;2.20;;
78796;SDS011;68145;52.514;13.460;2023-07-16T12:04:19;3.63;;;2.15;;
78796;SDS011;68145;52.514;13.460;2023-07-16T12:06:45;4.30;;;2.20;;
78796;SDS011;68145;52.514;13.460;2023-07-16T12:09:11;3.35;;;2.00;;
78796;SDS011;68145;52.514;13.460;2023-07-16T12:11:38;5.57;;;2.90;;
78796;SDS011;68145;52.514;13.460;2023-07-16T12:14:04;4.68;;;2.50;;
78796;SDS011;68145;52.514;13.460;2023-07-16T12:16:31;3.58;;;2.15;;
78796;SDS011;68145;52.514;13.460;2023-07-16T12:18:57;4.60;;;2.50;;
78796;SDS011;68145;52.514;13.460;2023-07-16T12:21:23;2.67;;;1.90;;
78796;SDS011;68145;52.514;13.460;2023-07-16T12:23:49;3.58;;;2.03;;
78796;SDS011;68145;52.514;13.460;2023-07-16T12:26:15;4.68;;;2.40;;
78796;SDS011;68145;52.514;13.460;2023-07-16T12:28:41;4.50;;;2.00;;
78796;SDS011;68145;52.514;13.460;2023-07-16T12:31:07;2.80;;;2.10;;
78796;SDS011;68145;52.514;13.460;2023-07-16T12:33:33;2.75;;;1.67;;
78796;SDS011;68145;52.514;13.460;2023-07-16T12:35:59;3.92;;;2.05;;
78796;SDS011;68145;52.514;13.460;2023-07-16T12:38:25;10.15;;;6.60;;
78796;SDS011;68145;52.514;13.460;2023-07-16T12:40:51;15.18;;;2.38;;
78796;SDS011;68145;52.514;13.460;2023-07-16T12:43:17;7.43;;;3.65;;
78796;SDS011;68145;52.514;13.460;2023-07-16T12:45:43;3.63;;;2.33;;
78796;SDS011;68145;52.514;13.460;2023-07-16T12:48:09;3.92;;;2.10;;
78796;SDS011;68145;52.514;13.460;2023-07-16T12:50:36;3.42;;;2.17;;
78796;SDS011;68145;52.514;13.460;2023-07-16T12:53:02;8.30;;;3.85;;
78796;SDS011;68145;52.514;13.460;2023-07-16T12:55:28;3.97;;;2.10;;
78796;SDS011;68145;52.514;13.460;2023-07-16T12:57:56;3.20;;;2.08;;
78796;SDS011;68145;52.514;13.460;2023-07-16T13:00:22;3.90;;;2.10;;
78796;SDS011;68145;52.514;13.460;2023-07-16T13:02:48;3.53;;;2.20;;
78796;SDS011;68145;52.514;13.460;2023-07-16T13:05:14;3.58;;;2.58;;
78796;SDS011;68145;52.514;13.460;2023-07-16T13:07:40;4.13;;;2.28;;
78796;SDS011;68145;52.514;13.460;2023-07-16T13:10:07;5.28;;;2.53;;
78796;SDS011;68145;52.514;13.460;2023-07-16T13:12:33;3.50;;;1.92;;
78796;SDS011;68145;52.514;13.460;2023-07-16T13:14:59;4.40;;;2.00;;
78796;SDS011;68145;52.514;13.460;2023-07-16T13:17:25;3.85;;;2.05;;
78796;SDS011;68145;52.514;13.460;2023-07-16T13:19:52;5.68;;;2.25;;
78796;SDS011;68145;52.514;13.460;2023-07-16T13:22:18;3.15;;;2.13;;
78796;SDS011;68145;52.514;13.460;2023-07-16T13:24:44;3.85;;;2.08;;
78796;SDS011;68145;52.514;13.460;2023-07-16T13:27:19;4.50;;;2.42;;
78796;SDS011;68145;52.514;13.460;2023-07-16T13:29:45;5.70;;;3.03;;
78796;SDS011;68145;52.514;13.460;2023-07-16T13:32:11;5.93;;;3.17;;
78796;SDS011;68145;52.514;13.460;2023-07-16T13:34:37;5.25;;;3.05;;
78796;SDS011;68145;52.514;13.460;2023-07-16T13:37:03;4.70;;;2.40;;
78796;SDS011;68145;52.514;13.460;2023-07-16T13:39:29;5.00;;;2.22;;
78796;SDS011;68145;52.514;13.460;2023-07-16T13:41:55;3.28;;;2.40;;
78796;SDS011;68145;52.514;13.460;2023-07-16T13:44:21;6.53;;;4.60;;
78796;SDS011;68145;52.514;13.460;2023-07-16T13:46:48;3.85;;;2.40;;
78796;SDS011;68145;52.514;13.460;2023-07-16T13:49:14;3.85;;;2.20;;
78796;SDS011;68145;52.514;13.460;2023-07-16T13:51:40;4.53;;;2.03;;
78796;SDS011;68145;52.514;13.460;2023-07-16T13:54:06;4.90;;;1.95;;
78796;SDS011;68145;52.514;13.460;2023-07-16T13:56:32;4.30;;;2.10;;
78796;SDS011;68145;52.514;13.460;2023-07-16T13:58:58;5.68;;;2.35;;
78796;SDS011;68145;52.514;13.460;2023-07-16T14:01:24;5.13;;;2.50;;
78796;SDS011;68145;52.514;13.460;2023-07-16T14:03:50;5.47;;;2.47;;
78796;SDS011;68145;52.514;13.460;2023-07-16T14:08:43;3.80;;;2.00;;
78796;SDS011;68145;52.514;13.460;2023-07-16T14:11:09;4.47;;;2.17;;
78796;SDS011;68145;52.514;13.460;2023-07-16T14:13:35;3.40;;;1.80;;
78796;SDS011;68145;52.514;13.460;2023-07-16T14:16:01;3.28;;;2.00;;
78796;SDS011;68145;52.514;13.460;2023-07-16T14:18:28;4.25;;;1.90;;
78796;SDS011;68145;52.514;13.460;2023-07-16T14:20:54;7.32;;;3.70;;
78796;SDS011;68145;52.514;13.460;2023-07-16T14:23:20;4.43;;;2.50;;
78796;SDS011;68145;52.514;13.460;2023-07-16T14:25:46;3.78;;;2.25;;
78796;SDS011;68145;52.514;13.460;2023-07-16T14:28:12;5.18;;;3.25;;
78796;SDS011;68145;52.514;13.460;2023-07-16T14:30:38;6.13;;;2.08;;
78796;SDS011;68145;52.514;13.460;2023-07-16T14:33:04;4.18;;;2.20;;
78796;SDS011;68145;52.514;13.460;2023-07-16T14:35:33;4.82;;;2.10;;
78796;SDS011;68145;52.514;13.460;2023-07-16T14:37:59;3.22;;;1.90;;
78796;SDS011;68145;52.514;13.460;2023-07-16T14:40:25;3.05;;;2.00;;
78796;SDS011;68145;52.514;13.460;2023-07-16T14:42:51;3.55;;;2.10;;
78796;SDS011;68145;52.514;13.460;2023-07-16T14:45:17;5.07;;;2.45;;
78796;SDS011;68145;52.514;13.460;2023-07-16T14:47:43;4.32;;;1.88;;
78796;SDS011;68145;52.514;13.460;2023-07-16T14:50:09;3.35;;;1.90;;
78796;SDS011;68145;52.514;13.460;2023-07-16T14:52:35;2.88;;;1.90;;
78796;SDS011;68145;52.514;13.460;2023-07-16T14:55:02;3.92;;;2.17;;
78796;SDS011;68145;52.514;13.460;2023-07-16T14:57:29;5.43;;;2.20;;
78796;SDS011;68145;52.514;13.460;2023-07-16T14:59:55;4.15;;;1.70;;